createdAt,value
2022-10-26T00:00:21.110Z,86.29
2022-10-26T00:01:21.113Z,86.15
2022-10-26T00:02:21.249Z,86.15
2022-10-26T00:03:21.122Z,86.29
2022-10-26T00:04:21.029Z,85.27
2022-10-26T00:07:10.800Z,85.27
2022-10-26T00:08:10.734Z,85.06
2022-10-26T00:18:18.846Z,85.75
2022-10-26T00:19:18.829Z,86.30
2022-10-26T00:20:18.942Z,86.27
2022-10-26T00:21:18.910Z,86.27
2022-10-26T00:28:01.822Z,85.96
2022-10-26T00:29:01.803Z,85.75
2022-10-26T00:32:35.037Z,85.96
2022-10-26T00:35:22.861Z,85.86
2022-10-26T00:39:25.837Z,86.27
2022-10-26T00:40:25.762Z,85.66
2022-10-26T00:41:25.655Z,86.47
2022-10-26T00:42:25.648Z,86.57
2022-10-26T00:45:47.897Z,86.16
2022-10-26T00:48:47.419Z,85.86
2022-10-26T00:49:47.397Z,85.86
2022-10-26T00:51:02.262Z,85.86
2022-10-26T00:54:10.197Z,85.75
2022-10-26T01:00:06.646Z,86.00
2022-10-26T01:03:38.620Z,86.10
2022-10-26T01:04:38.351Z,86.55
2022-10-26T01:05:38.431Z,87.26
2022-10-26T01:10:05.136Z,86.24
2022-10-26T01:11:05.266Z,86.45
2022-10-26T01:12:05.127Z,86.65
2022-10-26T01:13:05.110Z,87.67
2022-10-26T01:14:05.125Z,86.96
2022-10-26T01:15:05.125Z,87.02
2022-10-26T01:16:05.268Z,86.71
2022-10-26T01:17:05.377Z,86.71
2022-10-26T01:18:05.055Z,86.10
2022-10-26T01:26:59.487Z,86.24
2022-10-26T01:27:59.146Z,86.24
2022-10-26T01:28:58.998Z,86.80
2022-10-26T01:31:14.743Z,86.59
2022-10-26T01:32:14.762Z,86.59
2022-10-26T01:33:14.671Z,86.69
2022-10-26T01:34:14.666Z,86.59
2022-10-26T01:35:14.677Z,86.90
2022-10-26T01:36:14.666Z,86.65
2022-10-26T01:37:14.620Z,86.35
2022-10-26T01:38:14.770Z,86.45
2022-10-26T01:39:14.740Z,86.15
2022-10-26T01:40:14.784Z,86.04
2022-10-26T01:41:14.589Z,86.35
2022-10-26T01:42:14.569Z,86.35
2022-10-26T01:43:14.552Z,86.24
2022-10-26T01:44:14.651Z,85.94
2022-10-26T01:45:14.643Z,86.15
2022-10-26T01:46:14.671Z,85.53
2022-10-26T01:47:14.543Z,85.94
2022-10-26T01:48:14.503Z,85.74
2022-10-26T01:49:14.564Z,85.53
2022-10-26T01:50:14.503Z,86.04
2022-10-26T01:51:14.494Z,86.24
2022-10-26T01:52:14.470Z,86.04
2022-10-26T01:53:14.483Z,86.04
2022-10-26T01:54:14.436Z,86.24
2022-10-26T01:55:14.536Z,86.24
2022-10-26T01:56:14.556Z,86.04
2022-10-26T01:57:14.498Z,85.53
2022-10-26T01:58:14.395Z,86.04
2022-10-26T01:59:14.443Z,86.24
2022-10-26T02:00:14.392Z,86.00
2022-10-26T02:01:14.444Z,86.24
2022-10-26T02:02:14.469Z,86.15
2022-10-26T02:03:14.432Z,86.15
2022-10-26T02:04:14.457Z,86.04
2022-10-26T02:05:14.302Z,86.15
2022-10-26T02:06:14.317Z,86.04
2022-10-26T02:07:14.303Z,86.04
2022-10-26T02:08:14.388Z,85.69
2022-10-26T02:09:14.250Z,85.49
2022-10-26T02:10:14.248Z,85.63
2022-10-26T02:11:14.304Z,86.30
2022-10-26T02:12:14.282Z,85.63
2022-10-26T02:13:14.351Z,85.74
2022-10-26T02:15:14.401Z,86.21
2022-10-26T02:16:14.184Z,86.21
2022-10-26T02:17:14.331Z,85.90
2022-10-26T02:18:14.178Z,85.74
2022-10-26T02:19:14.164Z,86.21
2022-10-26T02:20:14.263Z,86.24
2022-10-26T02:21:14.158Z,86.21
2022-10-26T02:22:14.175Z,85.94
2022-10-26T02:23:14.221Z,86.24
2022-10-26T02:24:14.115Z,86.24
2022-10-26T02:25:14.138Z,86.15
2022-10-26T02:26:14.164Z,86.15
2022-10-26T02:27:14.281Z,86.15
2022-10-26T02:28:14.164Z,86.15
2022-10-26T02:29:14.026Z,86.24
2022-10-26T02:30:14.025Z,86.24
2022-10-26T02:31:13.996Z,86.15
2022-10-26T02:32:14.107Z,85.53
2022-10-26T02:33:13.989Z,86.04
2022-10-26T02:34:13.974Z,85.94
2022-10-26T02:35:13.974Z,86.15
2022-10-26T02:36:13.956Z,86.35
2022-10-26T02:37:13.933Z,86.04
2022-10-26T02:38:13.928Z,86.51
2022-10-26T02:39:14.027Z,86.55
2022-10-26T02:40:13.905Z,86.35
2022-10-26T02:41:13.910Z,86.41
2022-10-26T02:42:13.872Z,86.24
2022-10-26T02:43:13.969Z,86.04
2022-10-26T02:44:13.898Z,85.94
2022-10-26T02:45:13.876Z,86.04
2022-10-26T02:46:13.947Z,86.24
2022-10-26T02:47:13.926Z,86.24
2022-10-26T02:48:13.909Z,86.00
2022-10-26T02:49:13.795Z,86.04
2022-10-26T02:50:13.812Z,85.74
2022-10-26T02:51:13.925Z,86.21
2022-10-26T02:52:13.784Z,86.04
2022-10-26T02:53:13.880Z,86.24
2022-10-26T02:54:13.738Z,86.04
2022-10-26T02:55:13.739Z,86.15
2022-10-26T02:56:13.857Z,86.15
2022-10-26T02:57:13.771Z,86.24
2022-10-26T02:58:13.693Z,86.24
2022-10-26T02:59:13.826Z,86.24
2022-10-26T03:00:13.742Z,86.24
2022-10-26T03:01:13.782Z,86.15
2022-10-26T03:02:13.922Z,86.04
2022-10-26T03:03:13.632Z,86.18
2022-10-26T03:04:13.643Z,86.24
2022-10-26T03:05:13.620Z,86.08
2022-10-26T03:06:13.668Z,86.24
2022-10-26T03:07:13.612Z,86.39
2022-10-26T03:08:13.646Z,86.08
2022-10-26T03:09:13.571Z,86.29
2022-10-26T03:10:13.547Z,86.29
2022-10-26T03:11:13.597Z,86.08
2022-10-26T03:12:13.534Z,86.08
2022-10-26T03:13:13.628Z,86.29
2022-10-26T03:14:13.608Z,86.29
2022-10-26T03:15:13.498Z,86.29
2022-10-26T03:16:13.492Z,86.18
2022-10-26T03:17:13.490Z,86.29
2022-10-26T03:18:13.464Z,86.22
2022-10-26T03:19:13.454Z,86.08
2022-10-26T03:20:13.625Z,85.82
2022-10-26T03:21:13.665Z,85.61
2022-10-26T03:22:13.531Z,85.61
2022-10-26T03:23:13.542Z,86.53
2022-10-26T03:24:13.401Z,85.61
2022-10-26T03:25:13.395Z,86.02
2022-10-26T03:26:13.437Z,86.12
2022-10-26T03:27:13.462Z,86.33
2022-10-26T03:28:13.347Z,86.43
2022-10-26T03:29:13.347Z,86.12
2022-10-26T03:30:13.323Z,86.29
2022-10-26T03:31:13.326Z,86.12
2022-10-26T03:32:13.337Z,86.39
2022-10-26T03:33:13.315Z,86.08
2022-10-26T03:34:13.273Z,86.12
2022-10-26T03:35:13.391Z,86.18
2022-10-26T03:36:13.361Z,86.08
2022-10-26T03:37:13.242Z,86.18
2022-10-26T03:38:15.953Z,86.08
2022-10-26T03:39:13.260Z,86.18
2022-10-26T03:40:13.232Z,86.12
2022-10-26T03:41:13.202Z,86.29
2022-10-26T03:42:13.196Z,86.29
2022-10-26T03:43:13.175Z,86.29
2022-10-26T03:44:13.223Z,86.33
2022-10-26T03:45:13.149Z,86.12
2022-10-26T03:46:13.153Z,85.82
2022-10-26T03:47:13.126Z,85.77
2022-10-26T03:48:13.233Z,86.43
2022-10-26T03:49:13.239Z,86.08
2022-10-26T03:50:13.209Z,85.61
2022-10-26T03:51:13.173Z,86.12
2022-10-26T03:52:13.074Z,86.33
2022-10-26T03:53:13.055Z,85.82
2022-10-26T03:54:13.045Z,86.33
2022-10-26T03:55:13.055Z,86.12
2022-10-26T03:56:13.137Z,86.43
2022-10-26T03:57:13.013Z,86.33
2022-10-26T03:58:13.076Z,86.12
2022-10-26T03:59:12.990Z,86.33
2022-10-26T04:00:12.977Z,86.33
2022-10-26T04:01:13.070Z,86.33
2022-10-26T04:02:13.124Z,86.12
2022-10-26T04:03:12.949Z,86.12
2022-10-26T04:04:13.029Z,86.26
2022-10-26T04:05:12.933Z,86.36
2022-10-26T04:06:12.933Z,86.16
2022-10-26T04:07:12.913Z,86.33
2022-10-26T04:08:13.048Z,86.33
2022-10-26T04:09:12.875Z,86.02
2022-10-26T04:10:12.870Z,86.33
2022-10-26T04:11:12.900Z,86.43
2022-10-26T04:12:12.958Z,86.02
2022-10-26T04:13:12.830Z,86.43
2022-10-26T04:14:12.950Z,85.82
2022-10-26T04:15:12.827Z,86.02
2022-10-26T04:16:12.826Z,86.02
2022-10-26T04:17:12.780Z,86.36
2022-10-26T04:18:12.782Z,86.33
2022-10-26T04:19:12.882Z,86.33
2022-10-26T04:20:12.803Z,86.43
2022-10-26T04:21:12.764Z,86.47
2022-10-26T04:22:12.724Z,86.43
2022-10-26T04:23:12.806Z,86.36
2022-10-26T04:24:12.704Z,85.82
2022-10-26T04:25:12.792Z,85.82
2022-10-26T04:26:12.805Z,86.16
2022-10-26T04:27:12.687Z,86.16
2022-10-26T04:28:12.664Z,86.36
2022-10-26T04:29:12.652Z,86.12
2022-10-26T04:30:12.633Z,86.43
2022-10-26T04:31:12.649Z,86.67
2022-10-26T04:32:12.721Z,86.33
2022-10-26T04:33:12.614Z,86.63
2022-10-26T04:34:13.028Z,86.94
2022-10-26T04:35:15.309Z,86.53
2022-10-26T04:36:12.731Z,86.63
2022-10-26T04:37:12.646Z,86.77
2022-10-26T04:38:12.638Z,86.94
2022-10-26T04:39:12.540Z,86.63
2022-10-26T04:40:12.517Z,86.73
2022-10-26T04:41:12.527Z,86.67
2022-10-26T04:42:12.536Z,86.63
2022-10-26T04:43:12.527Z,86.77
2022-10-26T04:44:12.578Z,86.83
2022-10-26T04:45:12.473Z,86.73
2022-10-26T04:46:15.800Z,86.94
2022-10-26T04:47:12.458Z,86.33
2022-10-26T04:48:12.495Z,86.43
2022-10-26T04:49:12.424Z,86.12
2022-10-26T04:50:12.445Z,86.53
2022-10-26T04:51:12.397Z,86.43
2022-10-26T04:52:12.389Z,86.63
2022-10-26T04:53:12.387Z,86.22
2022-10-26T04:54:12.364Z,86.63
2022-10-26T04:55:12.351Z,86.47
2022-10-26T04:56:12.408Z,86.73
2022-10-26T04:57:12.444Z,86.53
2022-10-26T04:58:12.322Z,86.83
2022-10-26T04:59:12.321Z,86.83
2022-10-26T05:00:12.311Z,87.14
2022-10-26T05:01:12.522Z,86.94
2022-10-26T05:02:12.585Z,87.04
2022-10-26T05:03:12.275Z,87.14
2022-10-26T05:04:12.251Z,86.73
2022-10-26T05:05:14.944Z,87.04
2022-10-26T05:06:12.298Z,86.83
2022-10-26T05:07:12.236Z,87.04
2022-10-26T05:08:12.297Z,86.83
2022-10-26T05:09:12.193Z,86.63
2022-10-26T05:10:12.177Z,86.73
2022-10-26T05:11:12.230Z,86.73
2022-10-26T05:12:12.146Z,86.63
2022-10-26T05:13:12.145Z,86.73
2022-10-26T05:14:12.173Z,86.83
2022-10-26T05:15:12.145Z,86.83
2022-10-26T05:16:12.196Z,86.90
2022-10-26T05:17:12.092Z,86.63
2022-10-26T05:18:12.100Z,86.83
2022-10-26T05:19:12.077Z,86.53
2022-10-26T05:20:12.347Z,86.43
2022-10-26T05:21:12.115Z,86.33
2022-10-26T05:22:12.046Z,86.33
2022-10-26T05:23:12.054Z,86.73
2022-10-26T05:24:12.624Z,86.83
2022-10-26T05:25:12.009Z,86.63
2022-10-26T05:26:12.107Z,86.73
2022-10-26T05:27:11.984Z,86.94
2022-10-26T05:28:12.027Z,86.98
2022-10-26T05:29:11.976Z,87.04
2022-10-26T05:30:11.980Z,87.14
2022-10-26T05:31:11.985Z,87.14
2022-10-26T05:32:12.115Z,87.04
2022-10-26T05:33:11.914Z,87.14
2022-10-26T05:34:11.959Z,86.83
2022-10-26T05:35:11.891Z,86.94
2022-10-26T05:36:11.879Z,86.63
2022-10-26T05:37:11.878Z,86.67
2022-10-26T05:38:11.926Z,86.63
2022-10-26T05:39:11.998Z,86.73
2022-10-26T05:40:11.830Z,86.43
2022-10-26T06:02:19.566Z,87.20
2022-10-26T06:03:19.290Z,87.51
2022-10-26T06:04:19.156Z,88.08
2022-10-26T06:05:19.159Z,88.02
2022-10-26T06:06:19.261Z,87.98
2022-10-26T06:07:19.147Z,87.73
2022-10-26T06:08:19.244Z,87.94
2022-10-26T06:09:19.150Z,87.32
2022-10-26T06:10:19.093Z,87.23
2022-10-26T06:11:19.102Z,87.29
2022-10-26T06:12:19.918Z,86.77
2022-10-26T06:13:19.237Z,87.38
2022-10-26T06:15:45.555Z,87.04
2022-10-26T06:16:45.457Z,86.88
2022-10-26T06:17:45.580Z,87.55
2022-10-26T06:18:45.529Z,87.14
2022-10-26T06:19:45.410Z,87.45
2022-10-26T06:20:45.421Z,87.14
2022-10-26T06:21:45.482Z,87.24
2022-10-26T06:22:45.383Z,87.41
2022-10-26T06:23:45.385Z,87.10
2022-10-26T06:24:45.396Z,87.41
2022-10-26T06:25:45.370Z,87.51
2022-10-26T06:26:46.047Z,87.71
2022-10-26T06:27:45.337Z,86.96
2022-10-26T06:28:47.410Z,86.96
2022-10-26T06:29:45.307Z,86.55
2022-10-26T06:30:45.314Z,86.86
2022-10-26T06:31:45.297Z,86.55
2022-10-26T06:32:45.281Z,86.86
2022-10-26T06:33:45.356Z,86.45
2022-10-26T06:34:45.389Z,86.00
2022-10-26T06:35:45.234Z,86.30
2022-10-26T06:36:45.280Z,86.30
2022-10-26T06:37:45.211Z,86.55
2022-10-26T06:38:45.454Z,85.90
2022-10-26T06:39:45.412Z,85.49
2022-10-26T06:40:45.381Z,86.00
2022-10-26T06:41:45.164Z,86.10
2022-10-26T06:42:45.262Z,86.21
2022-10-26T06:43:45.173Z,86.00
2022-10-26T06:44:45.203Z,85.90
2022-10-26T06:45:45.322Z,85.80
2022-10-26T06:46:45.169Z,85.49
2022-10-26T06:47:45.144Z,85.49
2022-10-26T06:48:45.379Z,85.86
2022-10-26T06:49:45.138Z,86.16
2022-10-26T06:50:45.094Z,85.96
2022-10-26T06:51:45.538Z,86.27
2022-10-26T06:52:45.039Z,86.27
2022-10-26T06:53:45.267Z,86.16
2022-10-26T06:54:45.404Z,85.96
2022-10-26T06:55:45.301Z,85.96
2022-10-26T06:56:45.038Z,85.86
2022-10-26T06:57:45.038Z,85.86
2022-10-26T06:58:44.988Z,85.86
2022-10-26T06:59:44.965Z,85.86
2022-10-26T07:00:44.974Z,85.92
2022-10-26T07:01:45.020Z,85.82
2022-10-26T07:02:45.148Z,85.82
2022-10-26T07:03:44.958Z,85.92
2022-10-26T07:04:45.016Z,85.82
2022-10-26T07:05:45.260Z,85.82
2022-10-26T07:06:44.880Z,85.68
2022-10-26T07:07:44.876Z,85.68
2022-10-26T07:08:44.987Z,85.88
2022-10-26T07:09:44.913Z,85.84
2022-10-26T07:10:44.869Z,85.94
2022-10-26T07:11:45.949Z,85.84
2022-10-26T07:12:44.922Z,86.04
2022-10-26T07:13:44.802Z,85.74
2022-10-26T07:14:45.141Z,85.74
2022-10-26T07:15:44.937Z,85.74
2022-10-26T07:16:44.765Z,86.15
2022-10-26T07:17:44.773Z,85.74
2022-10-26T07:18:44.744Z,85.64
2022-10-26T07:19:45.005Z,85.74
2022-10-26T07:20:44.780Z,85.80
2022-10-26T07:21:44.751Z,85.94
2022-10-26T07:22:44.805Z,86.15
2022-10-26T07:23:44.731Z,86.04
2022-10-26T07:24:44.701Z,86.04
2022-10-26T07:25:44.723Z,86.15
2022-10-26T07:26:44.662Z,86.15
2022-10-26T07:27:44.785Z,86.00
2022-10-26T07:28:44.850Z,86.10
2022-10-26T07:29:44.619Z,86.21
2022-10-26T07:30:44.672Z,86.21
2022-10-26T07:31:44.810Z,86.21
2022-10-26T07:32:44.607Z,86.21
2022-10-26T07:33:44.650Z,84.34
2022-10-26T07:34:45.517Z,85.19
2022-10-26T07:35:44.551Z,85.76
2022-10-26T07:36:44.612Z,84.84
2022-10-26T07:37:44.588Z,85.25
2022-10-26T07:38:44.522Z,86.16
2022-10-26T07:39:44.687Z,86.07
2022-10-26T07:40:44.662Z,86.07
2022-10-26T07:41:44.625Z,85.46
2022-10-26T07:42:46.931Z,86.07
2022-10-26T07:43:44.846Z,86.07
2022-10-26T07:44:44.621Z,85.35
2022-10-26T07:45:44.670Z,84.74
2022-10-26T07:46:44.457Z,84.91
2022-10-26T07:47:44.462Z,85.25
2022-10-26T07:49:44.447Z,85.35
2022-10-26T07:50:44.391Z,85.25
2022-10-26T07:51:44.404Z,86.07
2022-10-26T07:52:44.368Z,85.86
2022-10-26T07:53:44.372Z,86.07
2022-10-26T07:54:44.345Z,86.07
2022-10-26T07:55:44.366Z,86.16
2022-10-26T07:56:44.323Z,85.92
2022-10-26T07:57:44.387Z,86.02
2022-10-26T07:58:44.293Z,86.02
2022-10-26T07:59:44.286Z,85.21
2022-10-26T08:00:44.387Z,85.01
2022-10-26T08:01:44.328Z,85.01
2022-10-26T08:02:44.472Z,85.07
2022-10-26T08:03:44.271Z,85.21
2022-10-26T08:04:44.237Z,85.11
2022-10-26T08:05:44.410Z,85.38
2022-10-26T08:06:44.376Z,85.38
2022-10-26T08:07:44.602Z,85.27
2022-10-26T08:08:46.641Z,85.38
2022-10-26T08:09:44.329Z,85.17
2022-10-26T08:10:44.201Z,84.97
2022-10-26T08:11:44.158Z,85.47
2022-10-26T08:12:44.146Z,84.97
2022-10-26T08:13:44.314Z,85.13
2022-10-26T08:14:44.172Z,84.97
2022-10-26T08:15:44.123Z,84.93
2022-10-26T08:16:44.095Z,84.83
2022-10-26T08:17:44.228Z,84.93
2022-10-26T08:18:44.098Z,84.63
2022-10-26T08:19:44.078Z,84.83
2022-10-26T08:20:44.049Z,85.33
2022-10-26T08:21:44.077Z,85.33
2022-10-26T08:22:44.533Z,85.24
2022-10-26T08:23:44.049Z,85.13
2022-10-26T08:24:44.004Z,85.33
2022-10-26T08:25:44.029Z,84.83
2022-10-26T08:26:44.160Z,85.03
2022-10-26T08:27:44.163Z,85.03
2022-10-26T08:28:44.155Z,84.83
2022-10-26T08:29:43.968Z,84.78
2022-10-26T08:30:43.971Z,84.78
2022-10-26T08:31:43.926Z,84.89
2022-10-26T08:32:43.916Z,84.89
2022-10-26T08:33:45.067Z,84.89
2022-10-26T08:34:44.088Z,84.83
2022-10-26T08:35:43.878Z,84.99
2022-10-26T08:36:43.868Z,84.89
2022-10-26T08:37:43.855Z,84.89
2022-10-26T08:38:43.849Z,84.85
2022-10-26T08:39:43.933Z,84.69
2022-10-26T08:40:43.909Z,84.85
2022-10-26T08:41:43.846Z,84.85
2022-10-26T08:42:43.807Z,84.95
2022-10-26T08:43:43.857Z,84.85
2022-10-26T08:44:43.779Z,84.75
2022-10-26T08:45:43.797Z,84.64
2022-10-26T08:46:43.776Z,84.75
2022-10-26T08:47:43.746Z,84.85
2022-10-26T08:48:43.734Z,84.85
2022-10-26T08:49:43.731Z,84.81
2022-10-26T08:50:43.740Z,84.70
2022-10-26T08:51:43.826Z,84.61
2022-10-26T08:52:43.697Z,85.01
2022-10-26T08:53:43.701Z,84.70
2022-10-26T08:54:43.684Z,84.81
2022-10-26T08:56:45.936Z,84.91
2022-10-26T08:57:43.678Z,84.91
2022-10-26T08:58:43.631Z,84.81
2022-10-26T08:59:43.651Z,84.70
2022-10-26T09:00:43.670Z,84.70
2022-10-26T09:01:43.712Z,85.01
2022-10-26T09:02:43.588Z,84.70
2022-10-26T09:03:43.578Z,84.81
2022-10-26T09:04:43.559Z,84.81
2022-10-26T09:05:43.625Z,84.81
2022-10-26T09:06:43.535Z,84.81
2022-10-26T09:07:43.529Z,85.01
2022-10-26T09:08:43.600Z,84.81
2022-10-26T09:09:43.538Z,85.01
2022-10-26T09:10:43.497Z,85.01
2022-10-26T09:11:43.480Z,85.78
2022-10-26T09:12:43.463Z,85.82
2022-10-26T09:13:43.483Z,84.97
2022-10-26T09:14:43.448Z,84.47
2022-10-26T09:15:43.444Z,84.67
2022-10-26T09:16:43.429Z,84.67
2022-10-26T09:17:43.508Z,84.67
2022-10-26T09:18:43.483Z,84.87
2022-10-26T09:19:43.385Z,84.87
2022-10-26T09:20:43.373Z,84.73
2022-10-26T09:21:43.420Z,85.03
2022-10-26T09:22:43.352Z,85.24
2022-10-26T09:23:43.368Z,84.83
2022-10-26T09:24:43.332Z,84.73
2022-10-26T09:25:43.341Z,84.63
2022-10-26T09:26:43.312Z,85.03
2022-10-26T09:27:43.326Z,84.93
2022-10-26T09:28:43.293Z,84.42
2022-10-26T09:29:43.295Z,84.73
2022-10-26T09:30:43.266Z,85.13
2022-10-26T09:31:43.641Z,84.83
2022-10-26T09:32:43.239Z,84.53
2022-10-26T09:33:43.266Z,84.83
2022-10-26T09:34:43.214Z,84.73
2022-10-26T09:35:43.280Z,84.73
2022-10-26T09:36:43.201Z,84.83
2022-10-26T09:37:43.180Z,84.83
2022-10-26T09:38:43.167Z,84.63
2022-10-26T09:39:43.175Z,84.63
2022-10-26T09:40:43.212Z,84.73
2022-10-26T09:41:43.144Z,84.83
2022-10-26T09:42:43.472Z,84.83
2022-10-26T09:43:43.157Z,84.73
2022-10-26T09:44:43.173Z,84.73
2022-10-26T09:45:43.137Z,84.63
2022-10-26T09:46:43.080Z,84.63
2022-10-26T09:47:43.070Z,84.73
2022-10-26T09:48:43.073Z,84.59
2022-10-26T09:49:43.057Z,84.59
2022-10-26T09:50:43.042Z,84.99
2022-10-26T09:51:43.060Z,84.85
2022-10-26T09:52:43.014Z,84.14
2022-10-26T09:53:44.002Z,84.14
2022-10-26T09:54:43.008Z,84.34
2022-10-26T09:55:42.984Z,83.74
2022-10-26T09:56:42.969Z,84.14
2022-10-26T09:58:58.245Z,84.25
2022-10-26T09:59:58.199Z,84.75
2022-10-26T10:00:58.209Z,83.94
2022-10-26T10:02:04.887Z,84.34
2022-10-26T10:02:58.248Z,84.65
2022-10-26T10:03:58.223Z,84.45
2022-10-26T10:04:58.232Z,84.55
2022-10-26T10:05:58.191Z,84.75
2022-10-26T10:06:58.112Z,84.71
2022-10-26T10:07:58.124Z,84.45
2022-10-26T10:08:58.104Z,84.55
2022-10-26T10:09:58.083Z,84.65
2022-10-26T10:10:58.094Z,84.61
2022-10-26T10:11:58.096Z,84.61
2022-10-26T10:12:58.045Z,84.61
2022-10-26T10:13:58.030Z,84.61
2022-10-26T10:14:58.049Z,84.20
2022-10-26T10:15:58.021Z,84.31
2022-10-26T10:16:58.063Z,84.41
2022-10-26T10:17:58.415Z,84.41
2022-10-26T10:18:58.001Z,84.61
2022-10-26T10:19:57.970Z,84.51
2022-10-26T10:20:57.968Z,84.11
2022-10-26T10:21:57.962Z,84.17
2022-10-26T10:22:58.034Z,84.67
2022-10-26T10:23:57.925Z,84.57
2022-10-26T10:24:57.911Z,84.27
2022-10-26T10:25:57.895Z,84.17
2022-10-26T10:26:57.902Z,84.06
2022-10-26T10:27:58.408Z,84.12
2022-10-26T10:28:57.883Z,84.33
2022-10-26T10:30:01.652Z,83.72
2022-10-26T10:30:58.841Z,83.98
2022-10-26T10:31:57.915Z,83.78
2022-10-26T10:32:57.839Z,83.98
2022-10-26T10:33:57.819Z,83.98
2022-10-26T10:34:57.903Z,84.09
2022-10-26T10:35:57.785Z,83.58
2022-10-26T10:36:57.772Z,83.78
2022-10-26T10:37:57.822Z,83.48
2022-10-26T10:38:57.795Z,83.34
2022-10-26T10:39:57.731Z,84.19
2022-10-26T10:40:57.953Z,83.44
2022-10-26T10:41:57.798Z,83.34
2022-10-26T10:42:57.752Z,83.74
2022-10-26T10:43:58.431Z,83.44
2022-10-26T10:44:57.678Z,83.34
2022-10-26T10:45:59.643Z,84.15
2022-10-26T10:46:57.696Z,84.15
2022-10-26T10:47:57.680Z,84.19
2022-10-26T10:48:57.663Z,84.19
2022-10-26T10:49:57.626Z,84.19
2022-10-26T10:50:57.654Z,83.98
2022-10-26T10:51:57.598Z,83.98
2022-10-26T10:52:57.612Z,84.35
2022-10-26T10:53:57.602Z,84.19
2022-10-26T10:54:57.565Z,84.25
2022-10-26T10:55:57.581Z,84.45
2022-10-26T10:56:57.545Z,84.05
2022-10-26T10:57:58.347Z,84.05
2022-10-26T10:58:57.540Z,84.05
2022-10-26T10:59:57.627Z,84.05
2022-10-26T11:00:57.503Z,84.35
2022-10-26T11:02:00.555Z,84.05
2022-10-26T11:02:57.595Z,84.55
2022-10-26T11:03:57.462Z,83.98
2022-10-26T11:04:57.534Z,84.55
2022-10-26T11:05:57.439Z,83.78
2022-10-26T11:06:57.431Z,84.49
2022-10-26T11:07:57.417Z,84.69
2022-10-26T11:08:57.407Z,84.59
2022-10-26T11:09:57.437Z,84.49
2022-10-26T11:10:57.415Z,84.69
2022-10-26T11:11:57.373Z,84.49
2022-10-26T11:12:57.356Z,84.49
2022-10-26T11:13:57.346Z,85.10
2022-10-26T11:14:57.361Z,84.49
2022-10-26T11:15:57.360Z,85.54
2022-10-26T11:16:57.335Z,85.50
2022-10-26T11:17:57.336Z,85.54
2022-10-26T11:18:57.309Z,85.30
2022-10-26T11:19:57.288Z,85.50
2022-10-26T11:21:57.259Z,84.39
2022-10-26T11:22:57.435Z,84.39
2022-10-26T11:23:57.239Z,84.69
2022-10-26T11:24:57.245Z,84.49
2022-10-26T11:25:57.418Z,84.59
2022-10-26T11:26:57.263Z,84.39
2022-10-26T11:27:57.219Z,84.55
2022-10-26T11:28:58.357Z,84.05
2022-10-26T11:29:57.893Z,84.15
2022-10-26T11:30:57.192Z,84.45
2022-10-26T11:31:57.924Z,83.95
2022-10-26T11:32:57.145Z,83.95
2022-10-26T11:34:57.128Z,84.85
2022-10-26T11:35:57.113Z,84.55
2022-10-26T11:36:57.110Z,84.25
2022-10-26T11:37:57.107Z,84.51
2022-10-26T11:38:57.872Z,84.31
2022-10-26T11:39:57.067Z,84.41
2022-10-26T11:40:57.079Z,84.21
2022-10-26T11:41:57.031Z,84.61
2022-10-26T11:42:57.063Z,83.95
2022-10-26T11:43:57.010Z,84.45
2022-10-26T11:44:56.998Z,84.65
2022-10-26T11:46:57.001Z,84.45
2022-10-26T11:47:57.000Z,84.45
2022-10-26T11:48:56.958Z,84.45
2022-10-26T11:49:56.989Z,84.55
2022-10-26T11:50:56.979Z,84.45
2022-10-26T11:51:59.419Z,84.55
2022-10-26T11:52:57.065Z,84.45
2022-10-26T11:53:56.898Z,84.35
2022-10-26T11:54:56.883Z,84.45
2022-10-26T11:55:56.890Z,84.45
2022-10-26T11:56:57.429Z,84.35
2022-10-26T11:57:56.850Z,84.35
2022-10-26T11:58:57.021Z,84.91
2022-10-26T11:59:56.862Z,84.11
2022-10-26T12:00:56.829Z,84.31
2022-10-26T12:01:56.806Z,84.91
2022-10-26T12:02:57.425Z,84.81
2022-10-26T12:03:56.821Z,84.81
2022-10-26T12:04:56.802Z,84.81
2022-10-26T12:05:56.884Z,84.51
2022-10-26T12:06:56.747Z,84.61
2022-10-26T12:07:56.732Z,84.51
2022-10-26T12:08:56.756Z,84.41
2022-10-26T12:09:56.755Z,84.51
2022-10-26T12:10:56.840Z,84.41
2022-10-26T12:11:56.739Z,84.61
2022-10-26T12:12:56.718Z,84.41
2022-10-26T12:13:56.671Z,84.31
2022-10-26T12:14:56.652Z,84.41
2022-10-26T12:16:03.411Z,84.21
2022-10-26T12:16:57.709Z,84.81
2022-10-26T12:17:56.621Z,84.07
2022-10-26T12:18:57.467Z,84.47
2022-10-26T12:19:56.670Z,84.07
2022-10-26T12:20:56.591Z,84.17
2022-10-26T12:21:56.918Z,83.97
2022-10-26T12:22:56.596Z,83.93
2022-10-26T12:23:56.552Z,83.93
2022-10-26T12:24:56.570Z,84.03
2022-10-26T12:25:56.527Z,83.83
2022-10-26T12:26:57.436Z,83.93
2022-10-26T12:27:56.508Z,84.33
2022-10-26T12:28:56.523Z,84.33
2022-10-26T12:29:56.483Z,83.79
2022-10-26T12:30:56.471Z,84.33
2022-10-26T12:31:57.437Z,84.19
2022-10-26T12:32:56.450Z,83.79
2022-10-26T12:33:56.435Z,83.34
2022-10-26T12:34:56.535Z,83.34
2022-10-26T12:35:56.490Z,83.28
2022-10-26T12:36:57.012Z,83.25
2022-10-26T12:37:56.411Z,83.34
2022-10-26T12:38:56.381Z,83.45
2022-10-26T12:39:56.374Z,83.95
2022-10-26T12:40:56.444Z,83.75
2022-10-26T12:41:56.360Z,84.25
2022-10-26T12:42:56.340Z,83.99
2022-10-26T12:43:56.339Z,84.29
2022-10-26T12:44:56.324Z,84.19
2022-10-26T12:45:56.300Z,84.39
2022-10-26T12:46:56.630Z,84.19
2022-10-26T12:47:56.288Z,84.19
2022-10-26T12:48:56.271Z,84.19
2022-10-26T12:49:56.255Z,84.49
2022-10-26T12:50:56.303Z,84.29
2022-10-26T12:51:56.348Z,84.19
2022-10-26T12:52:56.245Z,84.29
2022-10-26T12:53:56.217Z,84.63
2022-10-26T12:54:56.198Z,84.43
2022-10-26T12:55:56.191Z,84.33
2022-10-26T12:56:56.962Z,85.28
2022-10-26T12:57:56.168Z,85.34
2022-10-26T12:58:56.272Z,85.38
2022-10-26T12:59:56.146Z,85.28
2022-10-26T13:00:56.187Z,85.28
2022-10-26T13:01:56.120Z,85.38
2022-10-26T13:02:56.113Z,85.48
2022-10-26T13:03:56.098Z,85.38
2022-10-26T13:04:56.445Z,85.38
2022-10-26T13:05:56.083Z,85.17
2022-10-26T13:06:57.014Z,84.81
2022-10-26T13:07:56.063Z,85.11
2022-10-26T13:08:58.630Z,84.91
2022-10-26T13:09:56.052Z,84.81
2022-10-26T13:10:56.059Z,85.11
2022-10-26T13:11:56.945Z,85.02
2022-10-26T13:12:56.052Z,85.05
2022-10-26T13:13:55.993Z,84.89
2022-10-26T13:14:55.974Z,84.99
2022-10-26T13:15:55.967Z,85.30
2022-10-26T13:16:55.992Z,85.40
2022-10-26T13:17:55.997Z,85.30
2022-10-26T13:18:55.948Z,85.40
2022-10-26T13:19:55.920Z,85.24
2022-10-26T13:20:55.906Z,85.34
2022-10-26T13:21:55.898Z,84.69
2022-10-26T13:22:56.141Z,85.34
2022-10-26T13:23:55.871Z,84.73
2022-10-26T13:24:55.882Z,84.93
2022-10-26T13:25:55.854Z,84.93
2022-10-26T13:26:56.456Z,85.44
2022-10-26T13:27:55.826Z,85.44
2022-10-26T13:28:55.858Z,85.44
2022-10-26T13:29:55.803Z,85.24
2022-10-26T13:30:55.792Z,84.93
2022-10-26T13:31:55.861Z,85.48
2022-10-26T13:32:55.781Z,85.44
2022-10-26T13:33:55.764Z,85.38
2022-10-26T13:34:55.764Z,85.28
2022-10-26T13:35:55.737Z,85.28
2022-10-26T13:36:56.399Z,85.38
2022-10-26T13:37:55.714Z,85.48
2022-10-26T13:38:55.706Z,85.48
2022-10-26T13:39:55.694Z,85.38
2022-10-26T13:40:55.703Z,84.97
2022-10-26T13:41:55.689Z,84.97
2022-10-26T13:42:55.723Z,85.38
2022-10-26T13:43:55.654Z,85.08
2022-10-26T13:44:55.667Z,85.17
2022-10-26T13:45:55.630Z,85.28
2022-10-26T13:46:55.657Z,85.08
2022-10-26T13:47:55.606Z,85.08
2022-10-26T13:48:55.590Z,84.97
2022-10-26T13:49:55.575Z,85.08
2022-10-26T13:50:55.586Z,85.17
2022-10-26T13:51:55.553Z,84.97
2022-10-26T13:52:55.578Z,85.17
2022-10-26T13:53:55.560Z,85.38
2022-10-26T13:54:55.516Z,85.38
2022-10-26T13:55:55.538Z,85.03
2022-10-26T13:56:55.498Z,85.14
2022-10-26T13:57:55.487Z,85.17
2022-10-26T13:58:55.634Z,84.93
2022-10-26T13:59:56.934Z,85.17
2022-10-26T14:00:55.526Z,85.17
2022-10-26T14:01:55.454Z,85.28
2022-10-26T14:02:55.433Z,85.17
2022-10-26T14:03:55.417Z,85.17
2022-10-26T14:04:55.513Z,85.17
2022-10-26T14:05:55.400Z,85.17
2022-10-26T14:06:55.382Z,85.08
2022-10-26T14:07:56.952Z,85.17
2022-10-26T14:08:55.421Z,85.08
2022-10-26T14:09:55.355Z,85.28
2022-10-26T14:10:55.348Z,85.08
2022-10-26T14:11:55.331Z,85.08
2022-10-26T14:12:55.310Z,85.17